Time;durP1;ratioP1;P1;durP2;ratioP2;P2;SDS_P1;SDS_P2;PMS_P1;PMS_P2;Temp;Humidity;BMP_temperature;BMP_pressure;BME280_temperature;BME280_humidity;BME280_pressure;Samples;Min_cycle;Max_cycle;Signal;HPM_P1;HPM_P2
2021/08/17 00:07:07;;;;;;;5.18;2.90;;;26.20;32.90;;;;;;20919548;28;20069;-65
2021/08/17 00:17:10;;;;;;;7.53;2.80;;;26.10;33.00;;;;;;20917013;28;20053;-65
2021/08/17 00:27:12;;;;;;;5.07;2.85;;;25.80;33.40;;;;;;20915872;28;20065;-65
2021/08/17 00:37:15;;;;;;;5.53;2.50;;;25.70;33.60;;;;;;20916216;28;20049;-65
2021/08/17 00:47:18;;;;;;;4.80;2.60;;;25.60;33.90;;;;;;20915243;28;20456;-64
2021/08/17 00:57:19;;;;;;;5.25;2.58;;;25.40;34.00;;;;;;20914681;28;20052;-63
2021/08/17 01:07:21;;;;;;;4.68;2.90;;;25.20;34.00;;;;;;20913689;28;20098;-65
2021/08/17 01:17:23;;;;;;;4.93;2.55;;;25.00;34.10;;;;;;20913341;28;20041;-66
2021/08/17 01:27:24;;;;;;;3.72;2.30;;;24.90;34.10;;;;;;20912891;28;20398;-65
2021/08/17 01:37:26;;;;;;;;;;;24.70;34.20;;;;;;20912984;28;20141;-64
2021/08/17 01:47:36;;;;;;;4.25;2.10;;;24.40;34.30;;;;;;20911617;28;20393;-64
2021/08/17 01:57:45;;;;;;;6.75;3.15;;;24.30;34.50;;;;;;20911580;28;20448;-63
2021/08/17 02:07:58;;;;;;;8.95;2.88;;;24.40;34.50;;;;;;20925500;28;20107;-64
2021/08/17 02:18:06;;;;;;;6.60;3.08;;;24.20;34.80;;;;;;20940774;28;20512;-63
2021/08/17 02:28:12;;;;;;;6.10;3.13;;;24.10;35.00;;;;;;20924566;28;20057;-63
2021/08/17 02:38:21;;;;;;;6.97;2.97;;;;;;;;;;20924232;28;20080;-64
2021/08/17 02:48:31;;;;;;;4.95;2.67;;;;;;;;;;20923343;28;20052;-67
2021/08/17 02:58:36;;;;;;;6.38;3.38;;;;;;;;;;20923055;28;20386;-66
2021/08/17 03:08:46;;;;;;;4.55;2.60;;;;;;;;;;20921604;28;20056;-64
2021/08/17 03:18:54;;;;;;;5.85;3.40;;;;;;;;;;20936181;28;20041;-64
2021/08/17 03:29:06;;;;;;;6.68;4.43;;;;;;;;;;20920353;28;20167;-68
2021/08/17 03:39:12;;;;;;;7.47;3.40;;;;;;;;;;20919790;28;20040;-66
2021/08/17 03:49:24;;;;;;;6.35;3.90;;;;;;;;;;20918739;28;20053;-64
2021/08/17 03:59:33;;;;;;;7.97;4.75;;;;;;;;;;20917769;28;20044;-65
2021/08/17 04:09:40;;;;;;;6.50;4.20;;;;;;;;;;20917634;28;20056;-65
2021/08/17 04:19:47;;;;;;;7.03;3.90;;;;;;;;;;20916615;28;20041;-65
2021/08/17 04:29:52;;;;;;;6.75;3.97;;;;;;;;;;20915350;28;20058;-65
2021/08/17 04:39:56;;;;;;;6.15;3.95;;;;;;;;;;20915274;28;20083;-64
2021/08/17 04:50:06;;;;;;;5.28;3.17;;;;;;;;;;20914092;28;20080;-64
2021/08/17 05:00:11;;;;;;;5.60;3.30;;;;;;;;;;20913778;28;20182;-64
2021/08/17 05:10:15;;;;;;;4.20;2.92;;;;;;;;;;20913328;28;20053;-64
2021/08/17 05:20:17;;;;;;;4.53;2.92;;;;;;;;;;20912201;28;20049;-65
2021/08/17 05:30:20;;;;;;;6.90;3.90;;;;;;;;;;20913056;28;20442;-64
2021/08/17 05:40:24;;;;;;;4.22;3.00;;;;;;;;;;20924816;28;20087;-65
2021/08/17 05:50:27;;;;;;;5.17;3.00;;;;;;;;;;20929381;28;20508;-63
2021/08/17 06:00:29;;;;;;;5.60;2.53;;;;;;;;;;20926995;28;20052;-63
2021/08/17 06:10:32;;;;;;;;;;;;;;;;;;20927032;28;20336;-65
2021/08/17 06:20:34;;;;;;;4.60;2.50;;;;;;;;;;20925821;28;19927;-64
2021/08/17 06:30:38;;;;;;;3.75;2.38;;;;;;;;;;20925359;28;20140;-64
2021/08/17 06:40:40;;;;;;;4.30;2.63;;;;;;;;;;20924614;28;20041;-64
2021/08/17 06:50:42;;;;;;;5.37;2.87;;;;;;;;;;20923080;28;20059;-65
2021/08/17 07:00:46;;;;;;;4.07;2.55;;;;;;;;;;20923071;28;20056;-64
2021/08/17 07:10:49;;;;;;;5.80;2.70;;;;;;;;;;20921250;28;20477;-63
2021/08/17 07:20:52;;;;;;;4.70;2.20;;;;;;;;;;20920479;28;20398;-64
2021/08/17 07:30:54;;;;;;;4.05;2.30;;;;;;;;;;20920599;28;20566;-64
2021/08/17 07:40:58;;;;;;;6.38;2.40;;;;;;;;;;20917708;28;20041;-63
2021/08/17 07:51:01;;;;;;;8.52;2.53;;;;;;;;;;20918807;28;20513;-65
2021/08/17 08:01:04;;;;;;;5.45;2.20;;;;;;;;;;20917128;28;20052;-65
2021/08/17 08:11:06;;;;;;;4.35;1.95;;;;;;;;;;20958467;28;20071;-69
2021/08/17 08:21:08;;;;;;;4.22;1.83;;;;;;;;;;20973503;28;20401;-62
2021/08/17 08:31:10;;;;;;;;;;;;;;;;;;20973027;28;20083;-61
2021/08/17 08:41:16;;;;;;;3.97;1.80;;;;;;;;;;20934126;28;20397;-64
2021/08/17 08:51:19;;;;;;;5.35;2.22;;;;;;;;;;20913903;28;20629;-64
2021/08/17 09:01:23;;;;;;;3.53;2.00;;;;;;;;;;20914273;28;20455;-67
2021/08/17 09:11:26;;;;;;;4.50;2.50;;;;;;;;;;20912947;28;20052;-68
2021/08/17 09:21:49;;;;;;;5.07;3.00;;;;;;;;;;20912566;28;20087;-67
2021/08/17 09:31:51;;;;;;;;;;;;;;;;;;20912183;28;20053;-67
2021/08/17 09:42:05;;;;;;;9.38;2.47;;;;;;;;;;20911463;28;20415;-67
2021/08/17 09:52:09;;;;;;;5.65;2.80;;;;;;;;;;20910726;28;20052;-67
2021/08/17 10:02:12;;;;;;;6.50;2.80;;;;;;;;;;20910803;28;20048;-63
2021/08/17 10:12:13;;;;;;;8.02;3.42;;;;;;;;;;20909466;28;20048;-62
2021/08/17 10:22:15;;;;;;;6.22;3.22;;;;;;;;;;20913517;28;20505;-63
2021/08/17 10:32:50;;;;;;;9.40;3.90;;;;;;;;;;20924741;28;20477;-62
2021/08/17 10:42:52;;;;;;;10.10;3.90;;;;;;;;;;20915756;28;20053;-63
2021/08/17 10:52:54;;;;;;;11.13;4.50;;;;;;;;;;20914692;28;20056;-62
2021/08/17 11:02:56;;;;;;;11.18;4.45;;;;;;;;;;20913757;28;20483;-62
2021/08/17 11:13:08;;;;;;;8.77;4.00;;;;;;;;;;20915420;28;20052;-62
2021/08/17 11:23:18;;;;;;;7.10;3.50;;;;;;;;;;20919722;28;20494;-62
2021/08/17 11:33:21;;;;;;;7.82;3.40;;;;;;;;;;20919258;28;20079;-61
2021/08/17 11:43:23;;;;;;;7.03;4.38;;;;;;;;;;20919052;28;20044;-62
2021/08/17 11:53:26;;;;;;;7.32;3.20;;;;;;;;;;20918294;28;20053;-62
2021/08/17 12:03:29;;;;;;;4.82;2.88;;;;;;;;;;20917104;28;20132;-63
2021/08/17 12:13:38;;;;;;;6.68;4.03;;;;;;;;;;20916293;28;20045;-63
2021/08/17 12:23:43;;;;;;;4.73;3.30;;;;;;;;;;20914888;28;20469;-62
2021/08/17 12:33:46;;;;;;;5.60;2.80;;;;;;;;;;20914990;28;20553;-62
2021/08/17 12:43:48;;;;;;;4.00;2.80;;;;;;;;;;20914211;28;20543;-61
2021/08/17 12:53:53;;;;;;;6.18;2.88;;;;;;;;;;20914068;28;20452;-63
2021/08/17 13:03:56;;;;;;;4.38;2.47;;;;;;;;;;20913340;28;20064;-61
2021/08/17 13:13:58;;;;;;;5.57;3.03;;;;;;;;;;20913396;28;20132;-62
2021/08/17 13:24:02;;;;;;;10.57;5.88;;;;;;;;;;20912298;28;20060;-61
2021/08/17 13:34:04;;;;;;;5.13;2.78;;;;;;;;;;20914357;28;20052;-63
2021/08/17 13:44:07;;;;;;;5.07;2.55;;;;;;;;;;20913341;28;20045;-61
2021/08/17 13:54:09;;;;;;;5.40;3.10;;;;;;;;;;20911552;28;20049;-62
2021/08/17 14:04:11;;;;;;;6.97;2.80;;;;;;;;;;20925578;28;20490;-61
2021/08/17 14:14:14;;;;;;;6.25;2.92;;;;;;;;;;20927341;28;20053;-62
2021/08/17 14:24:16;;;;;;;6.65;2.47;;;;;;;;;;20924960;28;20059;-62
2021/08/17 14:34:18;;;;;;;6.78;2.90;;;;;;;;;;20925111;28;20063;-61
2021/08/17 14:44:21;;;;;;;4.68;2.53;;;;;;;;;;20925157;28;20094;-60
2021/08/17 14:54:23;;;;;;;5.88;2.45;;;;;;;;;;20923750;28;20501;-61
2021/08/17 15:04:25;;;;;;;5.63;2.95;;;;;;;;;;20922990;28;20053;-61
2021/08/17 15:14:29;;;;;;;3.55;2.55;;;;;;;;;;20921687;28;20489;-61
2021/08/17 15:24:32;;;;;;;3.58;2.10;;;;;;;;;;20921113;28;20142;-63
2021/08/17 15:34:34;;;;;;;6.82;5.88;;;;;;;;;;20918772;28;20493;-62
2021/08/17 15:44:36;;;;;;;5.55;2.35;;;;;;;;;;20919387;28;20052;-63
2021/08/17 15:54:38;;;;;;;4.63;2.40;;;;;;;;;;20918232;28;20049;-63
2021/08/17 16:04:41;;;;;;;6.47;4.82;;;;;;;;;;20917263;28;20049;-66
2021/08/17 16:14:43;;;;;;;12.05;9.88;;;;;;;;;;20917171;28;20049;-65
2021/08/17 16:24:46;;;;;;;5.22;2.45;;;;;;;;;;20915194;28;20052;-65
2021/08/17 16:34:48;;;;;;;3.78;2.75;;;;;;;;;;20914729;28;20049;-64
2021/08/17 16:44:50;;;;;;;4.38;2.72;;;;;;;;;;20914633;28;20474;-63
2021/08/17 16:54:52;;;;;;;4.63;2.30;;;;;;;;;;20912167;28;20178;-64
2021/08/17 17:04:55;;;;;;;3.45;2.67;;;;;;;;;;20913027;28;20560;-65
2021/08/17 17:14:57;;;;;;;3.88;2.75;;;;;;;;;;20913198;28;20409;-62
2021/08/17 17:24:59;;;;;;;4.22;2.38;;;;;;;;;;20911992;28;20449;-61
2021/08/17 17:35:01;;;;;;;3.63;2.30;;;;;;;;;;20928887;28;20053;-62
2021/08/17 17:45:03;;;;;;;4.05;2.67;;;;;;;;;;20939301;28;20060;-64
2021/08/17 17:55:05;;;;;;;6.10;2.47;;;;;;;;;;20938593;28;20059;-62
2021/08/17 18:05:09;;;;;;;3.03;2.47;;;;;;;;;;20938472;28;20194;-65
2021/08/17 18:15:12;;;;;;;3.45;2.45;;;;;;;;;;20938352;28;20474;-67
2021/08/17 18:25:16;;;;;;;3.40;2.40;;;;;;;;;;20937525;28;20044;-63
2021/08/17 18:35:18;;;;;;;4.97;2.80;;;;;;;;;;20937161;28;20572;-65
2021/08/17 18:45:21;;;;;;;4.05;2.90;;;;;;;;;;20930200;28;20056;-63
2021/08/17 18:55:23;;;;;;;4.22;2.45;;;;;;;;;;20924009;28;20144;-66
2021/08/17 19:05:25;;;;;;;4.70;2.60;;;;;;;;;;20922229;28;20045;-62
2021/08/17 19:15:27;;;;;;;4.38;2.20;;;;;;;;;;20921022;28;20059;-63
2021/08/17 19:25:30;;;;;;;3.30;2.17;;;;;;;;;;20920979;28;20466;-63
2021/08/17 19:35:32;;;;;;;4.35;2.38;;;;;;;;;;20920454;28;20486;-62
2021/08/17 19:45:34;;;;;;;5.22;2.70;;;;;;;;;;20919555;28;20049;-63
2021/08/17 19:55:36;;;;;;;7.47;2.63;;;;;;;;;;20916885;28;20103;-62
2021/08/17 20:05:38;;;;;;;4.85;3.20;;;;;;;;;;20918023;28;20053;-64
2021/08/17 20:15:40;;;;;;;4.55;2.88;;;;;;;;;;20916729;28;20048;-63
2021/08/17 20:25:42;;;;;;;5.13;2.80;;;;;;;;;;20916043;28;20053;-62
2021/08/17 20:35:45;;;;;;;5.90;3.17;;;;;;;;;;20914670;28;20048;-62
2021/08/17 20:45:48;;;;;;;4.47;2.88;;;;;;;;;;20913906;28;20509;-64
2021/08/17 20:55:51;;;;;;;4.30;2.90;;;;;;;;;;20913915;28;20115;-63
2021/08/17 21:05:53;;;;;;;5.80;2.92;;;;;;;;;;20913693;28;20489;-63
2021/08/17 21:15:55;;;;;;;8.48;2.38;;;;;;;;;;20915300;28;20167;-63
2021/08/17 21:25:58;;;;;;;5.60;2.22;;;;;;;;;;20912680;28;20049;-63
2021/08/17 21:36:00;;;;;;;4.47;2.38;;;;;;;;;;20911823;28;20056;-66
2021/08/17 21:46:04;;;;;;;7.15;2.78;;;;;;;;;;20912251;28;20041;-66
2021/08/17 21:56:06;;;;;;;5.60;2.88;;;;;;;;;;20910805;28;20489;-63
2021/08/17 22:06:08;;;;;;;4.43;2.40;;;;;;;;;;20911233;28;20056;-64
2021/08/17 22:16:10;;;;;;;7.65;2.55;;;;;;;;;;20912103;28;20151;-68
2021/08/17 22:26:13;;;;;;;7.00;2.78;;;;;;;;;;20924836;28;20080;-64
2021/08/17 22:36:15;;;;;;;4.28;2.70;;;;;;;;;;20925160;28;20053;-65
2021/08/17 22:46:17;;;;;;;6.55;2.47;;;;;;;;;;20927530;28;20053;-68
2021/08/17 22:56:19;;;;;;;3.95;2.80;;;;;;;;;;20922788;28;20056;-67
2021/08/17 23:06:21;;;;;;;3.60;2.42;;;;;;;;;;20922388;28;20052;-63
2021/08/17 23:16:23;;;;;;;3.30;2.25;;;;;;;;;;20921714;28;20156;-64
2021/08/17 23:26:26;;;;;;;4.53;2.05;;;;;;;;;;20922221;28;20057;-64
2021/08/17 23:36:27;;;;;;;3.35;2.00;;;;;;;;;;20920205;28;20478;-63
2021/08/17 23:46:30;;;;;;;3.10;1.63;;;;;;;;;;20920445;28;20045;-64
2021/08/17 23:56:33;;;;;;;5.55;2.30;;;;;;;;;;20919093;28;20088;-65
